createdAt,value
2023-02-16T00:00:48.694Z,102252.53
2023-02-16T00:03:22.465Z,102245.53
2023-02-16T00:05:51.115Z,102253.50
2023-02-16T00:08:18.108Z,102257.41
2023-02-16T00:11:04.936Z,102255.13
2023-02-16T00:13:53.061Z,102249.91
2023-02-16T00:16:24.879Z,102251.66
2023-02-16T00:18:52.898Z,102253.50
2023-02-16T00:21:21.240Z,102251.66
2023-02-16T00:23:48.905Z,102254.22
2023-02-16T00:26:25.625Z,102248.00
2023-02-16T00:28:58.651Z,102260.00
2023-02-16T00:31:29.211Z,102251.28
2023-02-16T00:33:56.827Z,102249.50
2023-02-16T00:36:24.295Z,102253.78
2023-02-16T00:38:52.033Z,102249.31
2023-02-16T00:41:41.463Z,102250.88
2023-02-16T00:44:30.942Z,102254.25
2023-02-16T00:47:02.420Z,102255.09
2023-02-16T00:49:29.497Z,102260.22
2023-02-16T00:51:57.113Z,102250.50
2023-02-16T00:54:24.457Z,102252.16
2023-02-16T00:56:52.218Z,102248.59
2023-02-16T00:59:22.524Z,102251.81
2023-02-16T01:01:50.326Z,102253.47
2023-02-16T01:04:23.872Z,102255.19
2023-02-16T01:07:09.642Z,102249.03
2023-02-16T01:09:55.450Z,102248.94
2023-02-16T01:12:22.845Z,102246.19
2023-02-16T01:14:54.833Z,102247.03
2023-02-16T01:17:24.462Z,102240.78
2023-02-16T01:19:51.498Z,102241.53
2023-02-16T01:22:18.658Z,102241.47
2023-02-16T01:24:45.965Z,102240.56
2023-02-16T01:27:14.375Z,102243.06
2023-02-16T01:29:41.671Z,102246.50
2023-02-16T01:32:12.879Z,102241.28
2023-02-16T01:34:40.103Z,102239.56
2023-02-16T01:37:14.695Z,102224.78
2023-02-16T01:39:42.081Z,102225.69
2023-02-16T01:42:45.077Z,102218.81
2023-02-16T01:45:18.921Z,102217.97
2023-02-16T01:47:56.105Z,102212.75
2023-02-16T01:50:28.833Z,102198.88
2023-02-16T01:53:13.384Z,102200.75
2023-02-16T01:55:47.276Z,102190.31
2023-02-16T01:58:45.767Z,102195.66
2023-02-16T02:01:52.878Z,102185.16
2023-02-16T02:04:48.410Z,102182.56
2023-02-16T02:07:31.871Z,102174.78
2023-02-16T02:10:15.642Z,102178.28
2023-02-16T02:13:40.984Z,102183.56
2023-02-16T02:16:11.687Z,102188.78
2023-02-16T02:18:39.240Z,102184.28
2023-02-16T02:21:55.864Z,102186.88
2023-02-16T02:24:49.014Z,102176.34
2023-02-16T02:27:57.609Z,102177.19
2023-02-16T02:30:48.358Z,102173.69
2023-02-16T02:33:37.575Z,102177.94
2023-02-16T02:36:34.249Z,102172.66
2023-02-16T02:39:25.322Z,102176.09
2023-02-16T02:42:06.965Z,102168.28
2023-02-16T02:45:02.276Z,102169.00
2023-02-16T02:47:43.054Z,102162.03
2023-02-16T02:51:07.274Z,102161.13
2023-02-16T02:53:50.283Z,102161.97
2023-02-16T02:56:37.026Z,102152.41
2023-02-16T02:59:26.524Z,102152.41
2023-02-16T03:02:00.812Z,102150.63
2023-02-16T03:04:31.224Z,102138.47
2023-02-16T03:07:01.203Z,102132.44
2023-02-16T03:09:28.704Z,102128.94
2023-02-16T03:12:15.894Z,102132.38
2023-02-16T03:14:51.049Z,102131.41
2023-02-16T03:17:43.710Z,102143.63
2023-02-16T03:20:33.692Z,102143.69
2023-02-16T03:23:22.389Z,102142.81
2023-02-16T03:26:10.998Z,102137.53
2023-02-16T03:29:01.907Z,102133.88
2023-02-16T03:31:35.274Z,102131.19
2023-02-16T03:34:03.066Z,102135.53
2023-02-16T03:36:34.212Z,102132.03
2023-02-16T03:39:02.317Z,102133.69
2023-02-16T03:41:34.483Z,102130.13
2023-02-16T03:44:01.689Z,102134.34
2023-02-16T03:46:28.864Z,102130.03
2023-02-16T03:48:55.900Z,102134.25
2023-02-16T03:51:23.082Z,102130.34
2023-02-16T03:53:50.348Z,102133.72
2023-02-16T03:56:17.462Z,102123.63
2023-02-16T03:58:44.508Z,102126.25
2023-02-16T04:01:12.086Z,102123.81
2023-02-16T04:03:39.158Z,102124.03
2023-02-16T04:06:06.848Z,102130.25
2023-02-16T04:08:34.446Z,102130.59
2023-02-16T04:11:21.901Z,102122.94
2023-02-16T04:13:49.107Z,102132.78
2023-02-16T04:16:16.175Z,102133.66
2023-02-16T04:18:43.408Z,102145.03
2023-02-16T04:21:10.485Z,102136.41
2023-02-16T04:23:37.869Z,102139.97
2023-02-16T04:26:05.495Z,102136.53
2023-02-16T04:28:32.500Z,102119.03
2023-02-16T04:30:59.798Z,102133.03
2023-02-16T04:33:27.167Z,102138.25
2023-02-16T04:35:54.263Z,102133.81
2023-02-16T04:38:21.469Z,102142.59
2023-02-16T04:40:48.593Z,102129.53
2023-02-16T04:43:15.758Z,102138.13
2023-02-16T04:45:43.151Z,102137.22
2023-02-16T04:48:10.402Z,102130.22
2023-02-16T04:50:37.581Z,102123.38
2023-02-16T04:53:04.747Z,102135.66
2023-02-16T04:55:32.000Z,102141.03
2023-02-16T04:57:59.238Z,102136.94
2023-02-16T05:00:26.588Z,102127.50
2023-02-16T05:02:53.988Z,102134.78
2023-02-16T05:05:21.033Z,102133.22
2023-02-16T05:07:48.597Z,102137.78
2023-02-16T05:10:15.592Z,102134.44
2023-02-16T05:13:01.503Z,102129.41
2023-02-16T05:15:28.744Z,102128.72
2023-02-16T05:17:55.696Z,102129.72
2023-02-16T05:20:43.054Z,102127.25
2023-02-16T05:23:10.082Z,102122.09
2023-02-16T05:25:37.301Z,102122.16
2023-02-16T05:28:04.723Z,102119.66
2023-02-16T05:30:32.359Z,102120.59
2023-02-16T05:32:59.691Z,102108.50
2023-02-16T05:35:26.884Z,102122.50
2023-02-16T05:37:53.945Z,102122.72
2023-02-16T05:40:21.223Z,102119.28
2023-02-16T05:42:52.440Z,102116.72
2023-02-16T05:45:19.766Z,102106.31
2023-02-16T05:47:47.352Z,102113.31
2023-02-16T05:50:14.755Z,102115.25
2023-02-16T05:52:41.844Z,102114.41
2023-02-16T05:55:08.925Z,102132.75
2023-02-16T05:57:35.977Z,102134.59
2023-02-16T06:00:05.251Z,102129.38
2023-02-16T06:02:32.270Z,102122.41
2023-02-16T06:04:59.406Z,102107.63
2023-02-16T06:07:26.591Z,102092.03
2023-02-16T06:09:53.582Z,102103.38
2023-02-16T06:12:20.538Z,102102.53
2023-02-16T06:14:47.770Z,102110.44
2023-02-16T06:17:15.144Z,102128.72
2023-02-16T06:19:42.115Z,102116.59
2023-02-16T06:22:09.466Z,102118.44
2023-02-16T06:24:37.237Z,102107.94
2023-02-16T06:27:04.716Z,102101.88
2023-02-16T06:29:32.118Z,102097.63
2023-02-16T06:31:59.465Z,102095.06
2023-02-16T06:34:26.502Z,102105.56
2023-02-16T06:36:53.697Z,102112.56
2023-02-16T06:39:20.981Z,102111.78
2023-02-16T06:41:48.338Z,102108.44
2023-02-16T06:44:16.734Z,102122.50
2023-02-16T06:46:46.756Z,102131.28
2023-02-16T06:49:20.620Z,102132.31
2023-02-16T06:51:49.784Z,102135.16
2023-02-16T06:54:18.222Z,102134.38
2023-02-16T06:56:45.666Z,102134.47
2023-02-16T06:59:13.565Z,102142.28
2023-02-16T07:01:45.500Z,102150.22
2023-02-16T07:04:18.253Z,102145.88
2023-02-16T07:06:45.354Z,102140.75
2023-02-16T07:09:13.114Z,102131.22
2023-02-16T07:11:40.631Z,102126.03
2023-02-16T07:14:07.828Z,102141.78
2023-02-16T07:16:35.137Z,102150.66
2023-02-16T07:19:02.309Z,102154.16
2023-02-16T07:21:29.511Z,102155.16
2023-02-16T07:23:56.623Z,102164.06
2023-02-16T07:26:23.690Z,102153.00
2023-02-16T07:28:51.005Z,102158.59
2023-02-16T07:31:18.404Z,102159.75
2023-02-16T07:33:45.733Z,102165.19
2023-02-16T07:36:13.669Z,102160.25
2023-02-16T07:38:43.801Z,102167.44
2023-02-16T07:41:12.093Z,102158.91
2023-02-16T07:43:39.564Z,102160.91
2023-02-16T07:46:06.980Z,102160.31
2023-02-16T07:48:34.592Z,102160.59
2023-02-16T07:51:02.782Z,102167.16
2023-02-16T07:53:30.432Z,102157.84
2023-02-16T07:55:57.841Z,102157.22
2023-02-16T07:58:27.905Z,102157.41
2023-02-16T08:01:11.036Z,102154.78
2023-02-16T08:03:39.320Z,102147.75
2023-02-16T08:06:07.736Z,102147.75
2023-02-16T08:08:35.869Z,102152.06
2023-02-16T08:11:21.044Z,102160.81
2023-02-16T08:13:49.499Z,102161.72
2023-02-16T08:16:23.688Z,102156.69
2023-02-16T08:18:52.448Z,102159.44
2023-02-16T08:21:23.636Z,102162.25
2023-02-16T08:24:03.997Z,102165.00
2023-02-16T08:26:40.008Z,102155.34
2023-02-16T08:29:10.155Z,102162.38
2023-02-16T08:31:39.342Z,102154.69
2023-02-16T08:34:07.356Z,102162.63
2023-02-16T08:36:38.289Z,102164.63
2023-02-16T08:39:12.117Z,102170.22
2023-02-16T08:41:39.579Z,102170.53
2023-02-16T08:44:08.458Z,102178.75
2023-02-16T08:46:40.049Z,102175.56
2023-02-16T08:49:09.208Z,102176.72
2023-02-16T08:51:46.575Z,102175.22
2023-02-16T08:54:19.517Z,102178.81
2023-02-16T08:56:48.216Z,102178.00
2023-02-16T08:59:17.537Z,102177.94
2023-02-16T09:01:45.134Z,102182.09
2023-02-16T09:04:14.108Z,102186.25
2023-02-16T09:06:45.136Z,102184.53
2023-02-16T09:09:13.230Z,102192.38
2023-02-16T09:11:41.104Z,102201.25
2023-02-16T09:14:09.382Z,102190.78
2023-02-16T09:16:39.821Z,102199.59
2023-02-16T09:19:07.414Z,102201.31
2023-02-16T09:21:34.732Z,102207.56
2023-02-16T09:24:04.546Z,102216.47
2023-02-16T09:26:35.553Z,102209.56
2023-02-16T09:29:03.875Z,102209.84
2023-02-16T09:31:35.287Z,102206.59
2023-02-16T09:34:20.939Z,102208.72
2023-02-16T09:36:49.766Z,102202.78
2023-02-16T09:39:19.251Z,102203.78
2023-02-16T09:42:24.616Z,102208.28
2023-02-16T09:45:15.594Z,102211.00
2023-02-16T09:47:46.379Z,102205.78
2023-02-16T09:50:50.267Z,102198.13
2023-02-16T09:53:24.418Z,102194.81
2023-02-16T09:56:20.153Z,102208.22
2023-02-16T09:58:56.312Z,102200.47
2023-02-16T10:01:41.899Z,102200.59
2023-02-16T10:04:31.370Z,102201.56
2023-02-16T10:07:40.742Z,102199.59
2023-02-16T10:10:10.951Z,102201.19
2023-02-16T10:12:46.866Z,102197.50
2023-02-16T10:15:22.365Z,102187.72
2023-02-16T10:18:20.435Z,102193.91
2023-02-16T10:20:52.356Z,102187.84
2023-02-16T10:23:34.777Z,102187.75
2023-02-16T10:26:16.495Z,102191.22
2023-02-16T10:28:51.329Z,102193.94
2023-02-16T10:31:43.827Z,102193.38
2023-02-16T10:34:34.173Z,102180.59
2023-02-16T10:37:31.735Z,102183.59
2023-02-16T10:40:27.876Z,102184.75
2023-02-16T10:43:24.457Z,102188.44
2023-02-16T10:46:01.821Z,102181.72
2023-02-16T10:48:29.291Z,102189.13
2023-02-16T10:51:07.811Z,102192.97
2023-02-16T10:53:52.908Z,102208.91
2023-02-16T10:56:38.666Z,102208.81
2023-02-16T10:59:18.367Z,102204.19
2023-02-16T11:01:59.132Z,102205.63
2023-02-16T11:04:44.713Z,102207.06
2023-02-16T11:07:16.002Z,102201.50
2023-02-16T11:09:46.630Z,102202.13
2023-02-16T11:12:38.413Z,102205.28
2023-02-16T11:15:23.975Z,102224.19
2023-02-16T11:18:05.242Z,102216.88
2023-02-16T11:20:44.998Z,102209.63
2023-02-16T11:23:24.807Z,102212.16
2023-02-16T11:26:03.645Z,102197.13
2023-02-16T11:28:39.303Z,102194.44
2023-02-16T11:31:39.582Z,102196.50
2023-02-16T11:34:37.083Z,102183.81
2023-02-16T11:37:12.765Z,102174.75
2023-02-16T11:39:48.430Z,102180.56
2023-02-16T11:42:37.740Z,102178.03
2023-02-16T11:45:07.512Z,102164.91
2023-02-16T11:47:42.069Z,102161.28
2023-02-16T11:50:31.509Z,102145.59
2023-02-16T11:53:26.019Z,102147.03
2023-02-16T11:56:17.206Z,102142.22
2023-02-16T11:59:02.991Z,102139.00
2023-02-16T12:02:00.907Z,102133.97
2023-02-16T12:04:41.335Z,102133.28
2023-02-16T12:07:27.718Z,102138.25
2023-02-16T12:10:19.025Z,102136.09
2023-02-16T12:13:04.074Z,102129.44
2023-02-16T12:15:55.541Z,102131.53
2023-02-16T12:19:11.226Z,102131.88
2023-02-16T12:22:28.755Z,102135.69
2023-02-16T12:25:22.465Z,102134.09
2023-02-16T12:28:01.686Z,102126.41
2023-02-16T12:31:00.267Z,102117.72
2023-02-16T12:33:47.949Z,102107.16
2023-02-16T12:36:29.052Z,102105.38
2023-02-16T12:39:23.983Z,102106.25
2023-02-16T12:42:14.404Z,102096.47
2023-02-16T12:44:48.749Z,102094.66
2023-02-16T12:47:30.063Z,102092.97
2023-02-16T12:50:03.835Z,102082.31
2023-02-16T12:52:57.885Z,102077.78
2023-02-16T12:55:59.169Z,102070.56
2023-02-16T12:58:43.915Z,102074.16
2023-02-16T13:01:23.570Z,102070.72
2023-02-16T13:04:21.826Z,102065.47
2023-02-16T13:07:18.136Z,102076.16
2023-02-16T13:10:11.546Z,102057.78
2023-02-16T13:13:21.186Z,102052.72
2023-02-16T13:15:58.660Z,102051.09
2023-02-16T13:18:40.316Z,102049.56
2023-02-16T13:25:23.018Z,102038.34
2023-02-16T13:25:46.453Z,102033.88
2023-02-16T13:28:26.060Z,102034.84
2023-02-16T13:31:26.167Z,102029.63
2023-02-16T13:34:42.545Z,102027.94
2023-02-16T13:37:24.562Z,102016.56
2023-02-16T13:40:19.496Z,102009.53
2023-02-16T13:43:12.544Z,102009.59
2023-02-16T13:45:44.360Z,102004.31
2023-02-16T13:48:37.666Z,102004.38
2023-02-16T13:51:16.761Z,102000.91
2023-02-16T13:53:52.839Z,101987.69
2023-02-16T13:56:29.498Z,101993.94
2023-02-16T13:59:00.128Z,101992.25
2023-02-16T14:01:38.834Z,101990.53
2023-02-16T14:04:33.796Z,101989.69
2023-02-16T14:07:04.017Z,101987.06
2023-02-16T14:09:45.940Z,101975.66
2023-02-16T14:12:17.151Z,101980.94
2023-02-16T14:14:56.613Z,101976.53
2023-02-16T14:17:28.783Z,101968.59
2023-02-16T14:20:25.170Z,101973.91
2023-02-16T14:23:00.181Z,101963.38
2023-02-16T14:25:30.909Z,101969.50
2023-02-16T14:28:02.989Z,101964.19
2023-02-16T14:30:50.057Z,101966.81
2023-02-16T14:33:31.609Z,101965.03
2023-02-16T14:35:58.674Z,101958.84
2023-02-16T14:38:45.873Z,101960.63
2023-02-16T14:41:36.893Z,101960.56
2023-02-16T14:44:07.059Z,101961.44
2023-02-16T14:46:42.877Z,101950.88
2023-02-16T14:50:06.582Z,101949.09
2023-02-16T14:53:48.390Z,101951.75
2023-02-16T14:56:42.939Z,101937.66
2023-02-16T14:59:27.739Z,101931.53
2023-02-16T15:01:55.849Z,101935.06
2023-02-16T15:04:31.865Z,101936.84
2023-02-16T15:07:05.366Z,101937.78
2023-02-16T15:09:34.941Z,101929.00
2023-02-16T15:12:22.461Z,101930.78
2023-02-16T15:14:50.536Z,101932.56
2023-02-16T15:17:29.020Z,101936.06
2023-02-16T15:20:04.149Z,101936.91
2023-02-16T15:22:31.803Z,101933.31
2023-02-16T15:25:24.560Z,101929.75
2023-02-16T15:27:59.183Z,101942.97
2023-02-16T15:30:35.947Z,101939.44
2023-02-16T15:33:25.725Z,101931.50
2023-02-16T15:36:13.394Z,101927.06
2023-02-16T15:38:54.930Z,101935.84
2023-02-16T15:41:39.022Z,101934.06
2023-02-16T15:44:36.793Z,101927.88
2023-02-16T15:47:14.946Z,101921.66
2023-02-16T15:49:43.679Z,101921.66
2023-02-16T15:52:34.891Z,101922.53
2023-02-16T15:55:06.089Z,101924.25
2023-02-16T15:57:38.090Z,101922.41
2023-02-16T16:00:21.350Z,101919.75
2023-02-16T16:02:58.410Z,101924.09
2023-02-16T16:05:35.522Z,101919.63
2023-02-16T16:08:03.569Z,101919.59
2023-02-16T16:10:36.458Z,101916.03
2023-02-16T16:13:19.068Z,101916.84
2023-02-16T16:15:50.201Z,101915.03
2023-02-16T16:18:43.936Z,101914.13
2023-02-16T16:21:34.062Z,101921.97
2023-02-16T16:24:02.333Z,101916.56
2023-02-16T16:26:35.999Z,101921.78
2023-02-16T16:29:04.504Z,101919.97
2023-02-16T16:31:38.662Z,101921.69
2023-02-16T16:34:10.256Z,101920.75
2023-02-16T16:36:56.027Z,101926.81
2023-02-16T16:39:33.054Z,101922.31
2023-02-16T16:42:00.358Z,101930.13
2023-02-16T16:44:41.996Z,101923.00
2023-02-16T16:47:30.516Z,101933.41
2023-02-16T16:50:09.403Z,101930.63
2023-02-16T16:52:43.042Z,101928.75
2023-02-16T16:55:19.330Z,101926.91
2023-02-16T16:57:51.928Z,101925.91
2023-02-16T17:00:21.115Z,101925.81
2023-02-16T17:02:48.780Z,101928.38
2023-02-16T17:05:16.451Z,101935.34
2023-02-16T17:07:43.841Z,101927.41
2023-02-16T17:10:11.134Z,101930.91
2023-02-16T17:12:38.638Z,101933.47
2023-02-16T17:15:08.072Z,101933.38
2023-02-16T17:17:35.596Z,101934.25
2023-02-16T17:20:02.642Z,101929.78
2023-02-16T17:22:29.772Z,101931.50
2023-02-16T17:24:59.089Z,101933.03
2023-02-16T17:27:26.214Z,101928.78
2023-02-16T17:29:53.421Z,101933.19
2023-02-16T17:32:23.608Z,101927.84
2023-02-16T17:34:52.496Z,101925.25
2023-02-16T17:37:19.918Z,101931.34
2023-02-16T17:39:47.282Z,101933.13
2023-02-16T17:42:14.715Z,101925.22
2023-02-16T17:44:41.912Z,101923.44
2023-02-16T17:47:15.548Z,101928.72
2023-02-16T17:49:42.801Z,101927.59
2023-02-16T17:52:11.850Z,101924.13
2023-02-16T17:54:39.611Z,101918.81
2023-02-16T17:57:06.848Z,101916.16
2023-02-16T17:59:34.283Z,101905.66
2023-02-16T18:02:01.906Z,101912.66
2023-02-16T18:04:29.253Z,101924.09
2023-02-16T18:06:56.734Z,101921.44
2023-02-16T18:09:24.680Z,101923.22
2023-02-16T18:11:52.048Z,101920.59
2023-02-16T18:14:19.515Z,101915.31
2023-02-16T18:16:52.211Z,101924.09
2023-02-16T18:19:20.044Z,101913.56
2023-02-16T18:21:47.135Z,101903.03
2023-02-16T18:24:14.201Z,101904.78
2023-02-16T18:26:41.244Z,101911.81
2023-02-16T18:29:09.863Z,101916.16
2023-02-16T18:31:37.796Z,101912.66
2023-02-16T18:34:06.043Z,101909.16
2023-02-16T18:36:35.785Z,101893.25
2023-02-16T18:39:04.525Z,101906.50
2023-02-16T18:41:33.900Z,101910.91
2023-02-16T18:44:01.538Z,101910.91
2023-02-16T18:46:28.853Z,101910.03
2023-02-16T18:48:57.288Z,101908.25
2023-02-16T18:51:28.949Z,101904.78
2023-02-16T18:53:57.872Z,101896.88
2023-02-16T18:56:25.773Z,101895.97
2023-02-16T18:58:53.368Z,101893.34
2023-02-16T19:01:33.335Z,101896.03
2023-02-16T19:04:02.426Z,101896.91
2023-02-16T19:06:29.858Z,101896.03
2023-02-16T19:08:58.986Z,101895.13
2023-02-16T19:11:28.230Z,101889.84
2023-02-16T19:13:55.297Z,101892.47
2023-02-16T19:16:22.811Z,101896.00
2023-02-16T19:18:50.551Z,101896.88
2023-02-16T19:21:17.727Z,101890.69
2023-02-16T19:23:45.585Z,101897.72
2023-02-16T19:26:19.496Z,101888.97
2023-02-16T19:28:47.314Z,101891.53
2023-02-16T19:31:26.628Z,101890.69
2023-02-16T19:33:54.344Z,101892.41
2023-02-16T19:36:23.429Z,101895.63
2023-02-16T19:38:53.393Z,101888.75
2023-02-16T19:41:38.093Z,101888.75
2023-02-16T19:44:05.698Z,101895.72
2023-02-16T19:46:34.519Z,101905.34
2023-02-16T19:49:02.300Z,101897.41
2023-02-16T19:51:30.183Z,101900.03
2023-02-16T19:53:58.338Z,101903.53
2023-02-16T19:56:27.197Z,101901.72
2023-02-16T19:58:56.975Z,101908.72
2023-02-16T20:01:27.361Z,101908.72
2023-02-16T20:03:56.616Z,101912.22
2023-02-16T20:06:29.768Z,101909.59
2023-02-16T20:08:57.548Z,101913.03
2023-02-16T20:11:28.157Z,101903.38
2023-02-16T20:13:56.602Z,101902.47
2023-02-16T20:16:24.424Z,101891.91
2023-02-16T20:18:51.872Z,101895.41
2023-02-16T20:21:23.369Z,101885.72
2023-02-16T20:23:53.913Z,101897.13
2023-02-16T20:26:25.579Z,101890.09
2023-02-16T20:28:52.753Z,101894.44
2023-02-16T20:31:44.731Z,101898.84
2023-02-16T20:34:11.971Z,101893.56
2023-02-16T20:36:39.414Z,101897.97
2023-02-16T20:39:08.311Z,101890.09
2023-02-16T20:41:36.096Z,101886.56
2023-02-16T20:44:04.546Z,101896.25
2023-02-16T20:46:31.702Z,101897.97
2023-02-16T20:48:58.835Z,101896.25
2023-02-16T20:51:26.300Z,101901.56
2023-02-16T20:53:53.579Z,101896.31
2023-02-16T20:56:26.002Z,101891.94
2023-02-16T20:58:58.927Z,101885.81
2023-02-16T21:01:39.455Z,101885.84
2023-02-16T21:04:08.294Z,101879.72
2023-02-16T21:06:36.978Z,101884.16
2023-02-16T21:09:07.558Z,101873.66
2023-02-16T21:11:37.180Z,101873.69
2023-02-16T21:14:06.277Z,101866.69
2023-02-16T21:16:34.158Z,101857.09
2023-02-16T21:19:02.077Z,101862.38
2023-02-16T21:21:30.086Z,101854.53
2023-02-16T21:23:57.213Z,101854.56
2023-02-16T21:26:25.487Z,101859.84
2023-02-16T21:28:53.259Z,101851.97
2023-02-16T21:31:24.137Z,101856.38
2023-02-16T21:33:52.909Z,101870.47
2023-02-16T21:36:25.961Z,101860.00
2023-02-16T21:38:53.610Z,101863.53
2023-02-16T21:41:29.089Z,101859.16
2023-02-16T21:44:07.028Z,101866.19
2023-02-16T21:46:40.960Z,101863.63
2023-02-16T21:49:17.336Z,101861.88
2023-02-16T21:51:46.744Z,101860.16
2023-02-16T21:54:17.316Z,101854.03
2023-02-16T21:56:50.343Z,101858.44
2023-02-16T21:59:19.993Z,101859.34
2023-02-16T22:01:53.309Z,101865.53
2023-02-16T22:04:22.750Z,101859.38
2023-02-16T22:06:51.336Z,101849.72
2023-02-16T22:09:22.532Z,101849.72
2023-02-16T22:11:50.361Z,101847.97
2023-02-16T22:14:17.422Z,101848.88
2023-02-16T22:16:46.766Z,101855.03
2023-02-16T22:19:17.592Z,101852.41
2023-02-16T22:21:47.774Z,101855.09
2023-02-16T22:24:17.905Z,101846.34
2023-02-16T22:26:49.671Z,101841.94
2023-02-16T22:29:18.001Z,101839.31
2023-02-16T22:31:49.884Z,101829.66
2023-02-16T22:34:21.259Z,101826.16
2023-02-16T22:36:49.256Z,101830.53
2023-02-16T22:39:18.164Z,101828.78
2023-02-16T22:41:45.397Z,101825.28
2023-02-16T22:44:12.995Z,101832.28
2023-02-16T22:46:40.405Z,101829.66
2023-02-16T22:49:09.061Z,101828.78
2023-02-16T22:51:37.704Z,101828.78
2023-02-16T22:54:06.226Z,101847.22
2023-02-16T22:56:34.828Z,101844.56
2023-02-16T22:59:02.003Z,101847.22
2023-02-16T23:01:30.536Z,101844.56
2023-02-16T23:04:00.733Z,101838.41
2023-02-16T23:06:32.517Z,101841.00
2023-02-16T23:09:06.321Z,101840.16
2023-02-16T23:11:35.647Z,101841.91
2023-02-16T23:14:02.716Z,101841.84
2023-02-16T23:16:30.129Z,101847.13
2023-02-16T23:18:59.537Z,101848.91
2023-02-16T23:21:32.667Z,101848.91
2023-02-16T23:24:00.273Z,101855.91
2023-02-16T23:26:31.015Z,101854.16
2023-02-16T23:29:02.148Z,101857.72
2023-02-16T23:31:35.783Z,101846.25
2023-02-16T23:34:05.129Z,101853.31
2023-02-16T23:36:35.648Z,101855.06
2023-02-16T23:39:23.692Z,101859.47
2023-02-16T23:41:51.023Z,101858.59
2023-02-16T23:44:19.487Z,101859.50
2023-02-16T23:46:46.841Z,101859.50
2023-02-16T23:49:14.261Z,101854.22
2023-02-16T23:51:41.440Z,101856.84
2023-02-16T23:54:10.940Z,101852.47
2023-02-16T23:56:39.607Z,101860.38
2023-02-16T23:59:06.776Z,101856.84
